Time;durP1;ratioP1;P1;durP2;ratioP2;P2;SDS_P1;SDS_P2;PMS_P1;PMS_P2;Temp;Humidity;BMP_temperature;BMP_pressure;BME280_temperature;BME280_humidity;BME280_pressure;Samples;Min_cycle;Max_cycle;Signal;HPM_P1;HPM_P2
2022/01/20 00:04:43;;;;;;;9.07;6.47;;;;;;;0.26;100.00;96424.81;10372893;28;20287;-60
2022/01/20 00:30:48;;;;;;;5.47;4.23;;;;;;;0.38;100.00;96418.03;10372074;28;20714;-61
2022/01/20 00:40:50;;;;;;;8.23;6.10;;;;;;;0.38;100.00;96433.47;10371474;28;20213;-62
2022/01/20 00:45:51;;;;;;;11.80;6.20;;;;;;;0.41;100.00;96432.47;10371911;28;20592;-63
2022/01/20 00:50:51;;;;;;;8.37;6.80;;;;;;;0.33;100.00;96431.22;10371512;28;20219;-62
2022/01/20 00:55:51;;;;;;;6.97;6.07;;;;;;;0.31;100.00;96420.19;10371454;28;20207;-63
2022/01/20 01:00:52;;;;;;;8.00;6.20;;;;;;;0.20;100.00;96425.22;10369084;28;20236;-63
2022/01/20 01:06:10;;;;;;;8.47;5.17;;;;;;;0.28;100.00;96412.66;10369653;28;20217;-62
2022/01/20 01:11:11;;;;;;;5.87;5.10;;;;;;;0.37;100.00;96428.44;10371031;28;20199;-60
2022/01/20 01:16:13;;;;;;;5.80;5.17;;;;;;;0.39;100.00;96429.19;10370759;28;20716;-60
2022/01/20 01:21:26;;;;;;;5.83;4.47;;;;;;;0.41;100.00;96427.31;10369431;28;20193;-58
2022/01/20 01:26:28;;;;;;;6.83;5.23;;;;;;;0.47;100.00;96414.03;10369109;28;20228;-61
2022/01/20 01:36:33;;;;;;;8.83;5.13;;;;;;;0.58;100.00;96411.53;10369900;28;20698;-59
2022/01/20 01:41:36;;;;;;;6.00;4.93;;;;;;;0.60;100.00;96398.56;10369084;28;20191;-56
2022/01/20 01:46:38;;;;;;;10.77;6.00;;;;;;;0.53;100.00;96405.88;10367994;28;20220;-58
2022/01/20 01:51:38;;;;;;;6.97;5.10;;;;;;;0.58;100.00;96408.16;10369427;28;20192;-61
2022/01/20 01:56:40;;;;;;;7.57;5.50;;;;;;;0.55;100.00;96408.38;10369606;28;20243;-62
2022/01/20 02:01:44;;;;;;;8.33;5.77;;;;;;;0.44;100.00;96429.69;10368127;28;20207;-61
2022/01/20 02:17:56;;;;;;;7.47;4.27;;;;;;;0.39;100.00;96421.44;10368362;28;20216;-63
2022/01/20 02:22:57;;;;;;;9.43;4.47;;;;;;;0.43;100.00;96410.84;10369454;28;20725;-60
2022/01/20 02:28:07;;;;;;;11.43;4.60;;;;;;;0.41;100.00;96407.50;10368136;28;20296;-61
2022/01/20 02:33:13;;;;;;;8.90;4.30;;;;;;;0.44;100.00;96432.25;10368914;28;20199;-59
2022/01/20 02:38:21;;;;;;;14.77;4.77;;;;;;;0.43;100.00;96426.31;10367977;28;20624;-61
2022/01/20 02:48:40;;;;;;;11.93;3.00;;;;;;;0.34;100.00;96408.88;10369613;28;20209;-61
2022/01/20 02:53:41;;;;;;;12.23;3.07;;;;;;;0.33;100.00;96407.22;10374550;28;20555;-61
2022/01/20 02:58:41;;;;;;;17.37;4.07;;;;;;;0.30;100.00;96417.72;10374047;28;20233;-61
2022/01/20 03:03:42;;;;;;;16.43;3.80;;;;;;;0.24;100.00;96405.22;10374240;28;20291;-59
2022/01/20 03:08:42;;;;;;;17.10;3.50;;;;;;;0.10;100.00;96419.00;10374061;28;20209;-61
2022/01/20 03:13:42;;;;;;;14.07;3.73;;;;;;;0.13;100.00;96423.97;10374082;28;20193;-62
2022/01/20 03:18:43;;;;;;;14.53;3.73;;;;;;;0.09;100.00;96420.78;10372504;28;20224;-61
2022/01/20 03:23:43;;;;;;;16.87;2.60;;;;;;;0.10;100.00;96431.88;10372541;28;20221;-64
2022/01/20 03:28:44;;;;;;;17.33;2.40;;;;;;;-0.09;100.00;96424.50;10373385;28;20219;-64
2022/01/20 03:33:44;;;;;;;17.33;2.40;;;;;;;-0.18;100.00;96431.06;10373255;28;20194;-63
2022/01/20 03:38:45;;;;;;;21.27;3.37;;;;;;;-0.36;100.00;96427.91;10372963;28;20213;-60
2022/01/20 03:43:47;;;;;;;9.57;2.30;;;;;;;-0.41;100.00;96427.38;10372904;28;20240;-61
2022/01/20 03:48:52;;;;;;;8.20;2.10;;;;;;;-0.51;100.00;96409.09;10372949;28;20240;-57
2022/01/20 03:53:55;;;;;;;14.10;2.90;;;;;;;-0.53;100.00;96408.38;10373727;28;20625;-58
2022/01/20 03:59:01;;;;;;;10.37;2.40;;;;;;;-0.51;100.00;96406.53;10371967;28;20225;-60
2022/01/20 04:04:01;;;;;;;12.63;3.13;;;;;;;-0.51;100.00;96408.28;10371639;28;20225;-61
2022/01/20 04:09:13;;;;;;;12.90;3.40;;;;;;;-0.53;100.00;96405.81;10371936;28;20807;-59
2022/01/20 04:14:14;;;;;;;8.50;3.20;;;;;;;-0.63;100.00;96400.41;10372206;28;20190;-60
2022/01/20 04:19:14;;;;;;;14.67;2.80;;;;;;;-0.65;100.00;96406.56;10372970;28;20259;-60
2022/01/20 04:24:15;;;;;;;17.30;2.87;;;;;;;-0.58;100.00;96403.50;10372466;28;20225;-61
2022/01/20 04:29:16;;;;;;;12.20;2.60;;;;;;;-0.56;100.00;96395.69;10372361;28;20203;-60
2022/01/20 04:34:16;;;;;;;9.87;1.77;;;;;;;-0.59;100.00;96383.03;10372215;28;20193;-59
2022/01/20 04:39:21;;;;;;;12.87;2.70;;;;;;;-0.61;100.00;96400.31;10370678;28;20213;-59
2022/01/20 04:44:38;;;;;;;12.27;2.60;;;;;;;-0.73;100.00;96384.72;10370629;28;20221;-59
2022/01/20 05:00:19;;;;;;;12.17;2.97;;;;;;;-0.46;100.00;96368.47;10370544;28;20715;-59
2022/01/20 05:05:38;;;;;;;19.03;3.03;;;;;;;-0.40;100.00;96372.41;10371311;28;20216;-61
2022/01/20 05:10:46;;;;;;;10.23;2.40;;;;;;;-0.45;100.00;96359.00;10369233;28;20218;-60
2022/01/20 05:15:47;;;;;;;17.00;4.70;;;;;;;-0.32;100.00;96356.47;10369881;28;20185;-58
2022/01/20 05:20:47;;;;;;;8.73;2.17;;;;;;;-0.29;100.00;96364.84;10369585;28;20426;-59
2022/01/20 05:25:48;;;;;;;15.30;2.73;;;;;;;-0.31;100.00;96363.28;10370903;28;20213;-60
2022/01/20 05:30:50;;;;;;;17.67;3.60;;;;;;;-0.26;100.00;96349.19;10369570;28;20228;-56
2022/01/20 05:35:59;;;;;;;21.07;2.73;;;;;;;-0.24;100.00;96351.66;10369309;28;20316;-58
2022/01/20 05:41:00;;;;;;;23.33;3.80;;;;;;;-0.14;100.00;96351.88;10369487;28;20189;-56
2022/01/20 05:46:03;;;;;;;13.53;3.00;;;;;;;-0.16;100.00;96335.72;10368943;28;20213;-60
2022/01/20 05:51:05;;;;;;;17.10;3.37;;;;;;;-0.08;100.00;96344.59;10369319;28;20664;-61
2022/01/20 05:56:06;;;;;;;17.73;4.83;;;;;;;-0.10;100.00;96331.00;10368837;28;20190;-57
2022/01/20 06:01:08;;;;;;;18.97;2.57;;;;;;;-0.07;100.00;96325.66;10368713;28;20680;-57
2022/01/20 06:06:11;;;;;;;15.47;3.20;;;;;;;-0.09;100.00;96337.81;10370207;28;20225;-61
2022/01/20 06:11:11;;;;;;;10.87;2.63;;;;;;;-0.01;100.00;96312.38;10368601;28;20200;-61
2022/01/20 06:16:12;;;;;;;16.57;3.27;;;;;;;0.07;100.00;96317.00;10368791;28;20202;-62
2022/01/20 06:21:12;;;;;;;15.13;2.90;;;;;;;0.13;100.00;96315.78;10368575;28;20191;-62
2022/01/20 06:26:12;;;;;;;14.73;3.13;;;;;;;0.19;100.00;96293.97;10375670;28;20348;-61
2022/01/20 06:31:16;;;;;;;17.77;2.77;;;;;;;0.09;100.00;96284.28;10376105;28;20637;-61
2022/01/20 06:36:16;;;;;;;20.97;4.53;;;;;;;0.14;100.00;96281.41;10375641;28;20230;-58
2022/01/20 06:41:17;;;;;;;23.47;3.70;;;;;;;0.18;100.00;96272.50;10373725;28;20344;-59
2022/01/20 06:46:18;;;;;;;35.43;12.97;;;;;;;0.23;100.00;96283.34;10371791;28;20229;-61
2022/01/20 06:51:25;;;;;;;16.40;2.80;;;;;;;0.17;100.00;96261.41;10375142;28;20185;-58
2022/01/20 06:56:26;;;;;;;12.37;2.97;;;;;;;0.02;100.00;96306.19;10373977;28;20891;-58
2022/01/20 07:01:27;;;;;;;12.57;2.93;;;;;;;-0.56;100.00;96308.22;10375391;28;20197;-61
2022/01/20 07:06:28;;;;;;;8.73;2.40;;;;;;;-0.59;100.00;96311.00;10374923;28;20225;-58
2022/01/20 07:11:47;;;;;;;13.07;2.70;;;;;;;-0.56;100.00;96329.63;10375683;28;20201;-58
2022/01/20 07:16:48;;;;;;;14.30;2.43;;;;;;;-0.52;100.00;96332.84;10374059;28;20609;-62
2022/01/20 07:21:49;;;;;;;16.40;3.37;;;;;;;-0.63;100.00;96348.13;10373986;28;20185;-62
2022/01/20 07:26:51;;;;;;;15.67;3.13;;;;;;;-0.62;100.00;96345.44;10373534;28;20221;-61
2022/01/20 07:31:59;;;;;;;8.53;3.00;;;;;;;-0.66;100.00;96350.88;10373918;28;20234;-62
2022/01/20 07:37:00;;;;;;;4.80;2.20;;;;;;;-0.66;100.00;96353.47;10372481;28;20252;-60
2022/01/20 07:42:01;;;;;;;2.60;1.93;;;;;;;-0.64;100.00;96357.59;10373329;28;20190;-62
2022/01/20 07:47:20;;;;;;;1.90;1.23;;;;;;;-0.65;100.00;96391.13;10374740;28;20209;-58
2022/01/20 07:52:20;;;;;;;1.43;0.97;;;;;;;-0.92;100.00;96403.03;10372746;28;20667;-63
2022/01/20 07:57:21;;;;;;;0.70;0.70;;;;;;;-0.90;100.00;96408.06;10372402;28;20252;-61
2022/01/20 08:02:21;;;;;;;2.20;1.00;;;;;;;-0.90;100.00;96408.88;10371678;28;20186;-63
2022/01/20 08:07:23;;;;;;;1.30;0.97;;;;;;;-1.12;100.00;96424.78;10373587;28;20631;-61
2022/01/20 08:12:25;;;;;;;3.93;1.40;;;;;;;-1.20;100.00;96436.44;10371726;28;20324;-63
2022/01/20 08:17:44;;;;;;;2.07;1.40;;;;;;;-1.19;100.00;96453.53;10372004;28;20577;-63
2022/01/20 08:22:44;;;;;;;1.77;1.20;;;;;;;-1.23;100.00;96470.84;10371340;28;20213;-63
2022/01/20 08:27:46;;;;;;;7.50;2.10;;;;;;;-1.15;100.00;96466.09;10372750;28;20710;-61
2022/01/20 08:32:47;;;;;;;10.37;2.10;;;;;;;-1.12;100.00;96455.63;10371337;28;20193;-64
2022/01/20 08:38:08;;;;;;;4.97;1.87;;;;;;;-1.20;100.00;96472.41;10372201;28;20620;-63
2022/01/20 08:43:10;;;;;;;7.70;1.80;;;;;;;-1.19;100.00;96477.47;10370886;28;20213;-64
2022/01/20 08:48:13;;;;;;;6.90;2.00;;;;;;;-1.30;100.00;96514.06;10369644;28;20225;-64
2022/01/20 08:53:32;;;;;;;12.50;2.27;;;;;;;-1.48;100.00;96520.25;10370685;28;20220;-64
2022/01/20 08:58:33;;;;;;;15.63;2.20;;;;;;;-1.54;100.00;96526.56;10369623;28;20264;-64
2022/01/20 09:03:35;;;;;;;9.33;2.47;;;;;;;-1.54;100.00;96524.00;10370109;28;20217;-64
2022/01/20 09:08:38;;;;;;;6.97;2.00;;;;;;;-1.68;100.00;96529.09;10369858;28;20216;-64
2022/01/20 09:19:02;;;;;;;13.63;1.87;;;;;;;-2.37;100.00;96561.88;10369653;28;20213;-65
2022/01/20 09:24:06;;;;;;;8.33;1.80;;;;;;;-2.39;100.00;96558.56;10353504;28;20584;-66
2022/01/20 09:29:06;;;;;;;12.03;3.73;;;;;;;-2.66;100.00;96559.09;10369480;28;20233;-66
2022/01/20 09:34:07;;;;;;;11.60;2.27;;;;;;;-2.38;100.00;96588.44;10369212;28;20192;-65
2022/01/20 09:39:11;;;;;;;7.97;1.83;;;;;;;-2.33;100.00;96589.88;10369216;28;20209;-65
2022/01/20 09:44:30;;;;;;;12.13;2.10;;;;;;;-2.16;100.00;96614.63;10370191;28;20224;-65
2022/01/20 09:49:30;;;;;;;15.13;2.20;;;;;;;-2.22;100.00;96614.97;10369279;28;20295;-67
2022/01/20 09:54:33;;;;;;;8.93;2.30;;;;;;;-1.87;100.00;96607.13;10368749;28;20234;-67
2022/01/20 09:59:38;;;;;;;7.17;1.80;;;;;;;-1.53;100.00;96618.13;10373391;28;20416;-67
2022/01/20 10:04:38;;;;;;;8.37;1.63;;;;;;;-1.60;100.00;96603.97;10376830;28;20304;-66
2022/01/20 10:09:51;;;;;;;10.50;2.20;;;;;;;-1.54;100.00;96595.91;10376815;28;20695;-67
2022/01/20 10:15:12;;;;;;;11.50;2.40;;;;;;;-1.48;100.00;96592.19;10377844;28;20201;-66
2022/01/20 10:20:13;;;;;;;15.80;2.30;;;;;;;-1.57;100.00;96592.72;10377450;28;20217;-66
2022/01/20 10:25:37;;;;;;;8.10;2.17;;;;;;;-1.40;100.00;96595.16;10373125;28;20221;-66
2022/01/20 10:30:45;;;;;;;9.90;1.97;;;;;;;-1.68;100.00;96575.31;10377202;28;20202;-66
2022/01/20 10:35:46;;;;;;;8.73;1.97;;;;;;;-1.68;100.00;96583.03;10359424;28;20192;-67
2022/01/20 10:41:04;;;;;;;16.83;2.67;;;;;;;-1.27;100.00;96577.31;10375648;28;20215;-66
2022/01/20 10:46:11;;;;;;;5.70;1.73;;;;;;;-0.98;100.00;96573.09;10375047;28;20225;-66
2022/01/20 10:51:16;;;;;;;12.40;2.03;;;;;;;-1.36;100.00;96583.81;10374528;28;20189;-66
2022/01/20 10:56:17;;;;;;;12.83;2.83;;;;;;;-1.51;100.00;96574.38;10374255;28;20205;-66
2022/01/20 11:01:17;;;;;;;15.80;3.10;;;;;;;-1.40;100.00;96586.63;10375080;28;20260;-66
2022/01/20 11:06:19;;;;;;;13.70;2.10;;;;;;;-1.13;100.00;96579.94;10410525;22;20241;-66
2022/01/20 11:11:25;;;;;;;11.63;2.33;;;;;;;-1.13;100.00;96576.53;10374840;28;20192;-66
2022/01/20 11:16:43;;;;;;;14.90;2.67;;;;;;;-1.48;100.00;96572.47;10374830;28;20204;-66
2022/01/20 11:21:45;;;;;;;14.17;2.27;;;;;;;-1.43;100.00;96567.06;10357723;28;20679;-66
2022/01/20 11:26:56;;;;;;;14.13;2.53;;;;;;;-1.32;100.00;96571.59;10390208;28;20596;-66
2022/01/20 11:32:25;;;;;;;16.10;2.83;;;;;;;-1.42;100.00;96566.16;10373765;28;20271;-64
2022/01/20 11:37:42;;;;;;;15.20;2.40;;;;;;;-1.24;100.00;96592.56;10373527;28;20690;-62
2022/01/20 11:42:56;;;;;;;11.20;2.67;;;;;;;-1.34;100.00;96579.41;10374339;28;20221;-63
2022/01/20 11:47:56;;;;;;;9.10;1.83;;;;;;;-1.27;100.00;96595.31;10374087;28;20221;-63
2022/01/20 11:53:08;;;;;;;11.23;2.57;;;;;;;-1.15;100.00;96566.34;10374217;28;20216;-62
2022/01/20 11:58:11;;;;;;;13.07;2.03;;;;;;;-0.73;100.00;96576.78;10373764;28;20205;-64
2022/01/20 12:03:13;;;;;;;17.30;1.83;;;;;;;-0.63;100.00;96565.06;10373253;28;20237;-63
2022/01/20 12:08:21;;;;;;;12.87;1.80;;;;;;;-0.76;100.00;96556.41;10372429;28;20189;-64
2022/01/20 12:13:21;;;;;;;18.83;2.37;;;;;;;-0.79;100.00;96561.72;10373193;28;20209;-62
2022/01/20 12:18:22;;;;;;;12.13;2.00;;;;;;;-1.05;100.00;96564.06;10373394;28;20193;-63
2022/01/20 12:23:24;;;;;;;17.23;2.40;;;;;;;-0.97;100.00;96579.03;10372364;28;20221;-63
2022/01/20 12:28:24;;;;;;;9.50;2.00;;;;;;;-1.01;100.00;96562.13;10373018;28;20634;-64
2022/01/20 12:33:27;;;;;;;12.40;2.60;;;;;;;-0.92;99.76;96546.16;10372425;28;20296;-64
2022/01/20 12:38:32;;;;;;;11.97;2.27;;;;;;;-1.14;99.68;96562.84;10372456;28;20267;-62
2022/01/20 12:43:58;;;;;;;12.93;1.80;;;;;;;-1.14;98.78;96556.88;10372271;28;20288;-62
2022/01/20 12:49:04;;;;;;;14.87;2.30;;;;;;;-1.12;98.18;96527.63;10371511;28;20205;-65
2022/01/20 12:54:27;;;;;;;9.53;2.00;;;;;;;-0.80;98.09;96537.72;10371777;28;20213;-63
2022/01/20 12:59:30;;;;;;;12.87;2.17;;;;;;;-0.20;95.31;96516.13;10370131;28;20189;-63
2022/01/20 13:04:32;;;;;;;12.90;2.13;;;;;;;0.64;91.94;96495.38;10371034;28;20741;-63
2022/01/20 13:09:47;;;;;;;12.17;2.33;;;;;;;0.52;87.91;96453.19;10370959;28;20247;-64
2022/01/20 13:14:49;;;;;;;9.47;2.20;;;;;;;1.13;85.68;96424.22;10371287;28;20206;-63
2022/01/20 13:19:52;;;;;;;11.07;2.10;;;;;;;1.38;82.77;96408.72;10370248;28;20291;-63
2022/01/20 13:24:53;;;;;;;9.20;2.43;;;;;;;1.71;82.25;96386.59;10370875;28;20707;-62
2022/01/20 13:29:54;;;;;;;13.60;3.80;;;;;;;1.25;80.89;96384.69;10370780;28;20220;-61
2022/01/20 13:35:00;;;;;;;18.27;2.57;;;;;;;0.31;82.80;96425.34;10370005;28;20244;-66
2022/01/20 13:40:02;;;;;;;9.33;1.83;;;;;;;0.02;84.13;96444.44;10370572;28;20198;-65
2022/01/20 13:45:23;;;;;;;12.90;2.57;;;;;;;-0.21;85.07;96449.28;10370348;28;20229;-66
2022/01/20 13:50:33;;;;;;;8.83;2.20;;;;;;;0.12;84.19;96437.75;10369802;28;20205;-67
2022/01/20 13:55:36;;;;;;;7.00;1.90;;;;;;;0.85;81.52;96385.66;10370255;28;20240;-65
2022/01/20 14:00:39;;;;;;;13.37;2.40;;;;;;;0.78;80.40;96396.50;10369794;28;20199;-69
2022/01/20 14:05:41;;;;;;;8.23;2.00;;;;;;;0.12;82.85;96422.31;10369663;28;20235;-68
2022/01/20 14:10:41;;;;;;;10.60;2.23;;;;;;;-0.31;86.08;96461.06;10370062;28;20193;-67
2022/01/20 14:15:42;;;;;;;13.90;1.93;;;;;;;-0.50;88.43;96489.72;10369531;28;20726;-66
2022/01/20 14:20:42;;;;;;;11.30;1.83;;;;;;;-0.66;91.91;96531.78;10369819;28;20197;-66
2022/01/20 14:25:46;;;;;;;16.50;2.73;;;;;;;-1.21;98.70;96587.25;10369650;28;20229;-66
2022/01/20 14:30:46;;;;;;;16.70;2.30;;;;;;;-1.53;100.00;96578.75;10369526;28;20671;-64
2022/01/20 14:35:46;;;;;;;7.00;2.03;;;;;;;-1.83;100.00;96549.56;10369493;28;20308;-65
2022/01/20 14:40:47;;;;;;;15.57;3.03;;;;;;;-1.99;100.00;96551.28;10369327;28;20263;-64
2022/01/20 14:45:48;;;;;;;11.53;2.30;;;;;;;-2.16;100.00;96545.34;10373815;28;20228;-66
2022/01/20 14:50:50;;;;;;;17.50;3.00;;;;;;;-2.10;100.00;96554.44;10376534;28;20679;-64
2022/01/20 14:55:50;;;;;;;15.67;2.77;;;;;;;-2.17;100.00;96569.34;10376295;28;20581;-65
2022/01/20 15:00:51;;;;;;;16.47;2.80;;;;;;;-2.24;100.00;96552.63;10375944;28;20239;-65
2022/01/20 15:05:51;;;;;;;22.23;3.27;;;;;;;-2.21;100.00;96572.16;10375268;28;20225;-64
2022/01/20 15:10:52;;;;;;;10.37;2.90;;;;;;;-2.09;100.00;96573.25;10376100;28;20191;-65
2022/01/20 15:15:52;;;;;;;11.40;2.47;;;;;;;-1.99;100.00;96589.78;10375367;28;20220;-66
2022/01/20 15:20:52;;;;;;;9.80;2.30;;;;;;;-2.02;100.00;96577.13;10375424;28;20197;-65
2022/01/20 15:25:53;;;;;;;14.17;2.20;;;;;;;-1.92;100.00;96562.06;10375249;28;20221;-66
2022/01/20 15:30:53;;;;;;;7.03;2.00;;;;;;;-1.98;100.00;96578.63;10375075;28;20192;-66
2022/01/20 15:35:55;;;;;;;14.03;2.87;;;;;;;-2.22;100.00;96573.91;10374832;28;20213;-66
2022/01/20 15:40:55;;;;;;;7.13;3.20;;;;;;;-2.28;100.00;96579.38;10374829;28;20198;-66
2022/01/20 15:45:57;;;;;;;15.33;3.87;;;;;;;-2.33;100.00;96577.03;10373768;28;21001;-66
2022/01/20 15:50:58;;;;;;;11.30;3.20;;;;;;;-2.34;100.00;96556.59;10374313;28;20292;-65
2022/01/20 15:55:58;;;;;;;7.80;2.37;;;;;;;-2.23;100.00;96559.41;10373449;28;20714;-63
2022/01/20 16:00:58;;;;;;;9.43;2.37;;;;;;;-2.19;100.00;96584.00;10373240;28;20563;-65
2022/01/20 16:05:59;;;;;;;9.27;2.80;;;;;;;-2.15;100.00;96598.31;10373582;28;20323;-64
2022/01/20 16:10:59;;;;;;;13.63;2.67;;;;;;;-2.11;100.00;96578.47;10373154;28;20200;-64
2022/01/20 16:16:01;;;;;;;14.53;2.87;;;;;;;-2.21;100.00;96592.69;10373262;28;20217;-63
2022/01/20 16:21:03;;;;;;;13.67;2.53;;;;;;;-2.29;100.00;96580.25;10372896;28;20189;-63
2022/01/20 16:26:03;;;;;;;8.90;2.00;;;;;;;-2.26;100.00;96576.72;10372724;28;20229;-64
2022/01/20 16:31:03;;;;;;;26.37;10.73;;;;;;;-2.23;100.00;96559.41;10372722;28;20563;-63
2022/01/20 16:36:04;;;;;;;16.37;3.20;;;;;;;-2.28;100.00;96583.66;10372326;28;20283;-63
2022/01/20 16:41:05;;;;;;;25.97;8.30;;;;;;;-2.25;100.00;96589.47;10372469;28;20248;-63
2022/01/20 16:46:06;;;;;;;79.17;31.67;;;;;;;-2.27;100.00;96598.97;10371917;28;20250;-63
2022/01/20 16:51:06;;;;;;;6.93;2.10;;;;;;;-2.25;100.00;96602.28;10372136;28;20208;-63
2022/01/20 16:56:06;;;;;;;12.80;3.13;;;;;;;-2.26;100.00;96594.69;10371691;28;20220;-63
2022/01/20 17:01:07;;;;;;;11.23;3.53;;;;;;;-2.28;100.00;96599.88;10371212;28;20568;-62
2022/01/20 17:06:07;;;;;;;11.40;4.83;;;;;;;-2.26;100.00;96580.09;10385015;22;20248;-64
2022/01/20 17:11:08;;;;;;;15.97;8.63;;;;;;;-2.17;100.00;96579.63;10370424;28;20197;-66
2022/01/20 17:16:08;;;;;;;10.80;3.40;;;;;;;-2.23;100.00;96594.50;10371232;28;20213;-66
2022/01/20 17:21:09;;;;;;;6.23;2.17;;;;;;;-2.20;100.00;96614.88;10370866;28;20216;-66
2022/01/20 17:26:09;;;;;;;11.83;2.30;;;;;;;-2.18;100.00;96608.75;10370710;28;20217;-66
2022/01/20 17:31:11;;;;;;;7.10;2.07;;;;;;;-2.28;100.00;96617.84;10370665;28;20201;-65
2022/01/20 17:36:12;;;;;;;8.30;1.77;;;;;;;-2.35;100.00;96630.16;10370124;28;20209;-65
2022/01/20 17:41:14;;;;;;;10.40;1.90;;;;;;;-2.46;100.00;96623.94;10370714;28;20201;-65
2022/01/20 17:46:14;;;;;;;5.47;1.53;;;;;;;-2.51;100.00;96619.84;10370052;28;20213;-65
2022/01/20 17:51:15;;;;;;;6.50;1.80;;;;;;;-2.60;100.00;96620.31;10370085;28;20204;-65
2022/01/20 17:56:15;;;;;;;3.97;1.30;;;;;;;-2.58;100.00;96633.06;10370161;28;20339;-64
2022/01/20 18:01:16;;;;;;;6.53;1.83;;;;;;;-2.51;100.00;96632.69;10369360;28;20198;-65
2022/01/20 18:06:17;;;;;;;5.43;1.67;;;;;;;-2.62;100.00;96642.66;10369825;28;20245;-65
2022/01/20 18:11:17;;;;;;;5.80;1.30;;;;;;;-2.70;100.00;96647.31;10369622;28;20189;-65
2022/01/20 18:16:18;;;;;;;7.50;1.47;;;;;;;-2.93;100.00;96661.28;10369699;28;20286;-65
2022/01/20 18:21:18;;;;;;;4.07;2.20;;;;;;;-3.11;100.00;96657.88;10375635;28;20193;-66
2022/01/20 18:26:20;;;;;;;4.97;2.47;;;;;;;-3.05;100.00;96657.56;10377253;28;20356;-68
2022/01/20 18:31:21;;;;;;;8.07;2.07;;;;;;;-2.94;100.00;96662.16;10377524;28;20193;-66
2022/01/20 18:36:21;;;;;;;7.60;1.40;;;;;;;-2.82;100.00;96671.81;10376913;28;20201;-65
2022/01/20 18:41:22;;;;;;;9.57;1.90;;;;;;;-2.79;100.00;96681.09;10376609;28;20207;-65
2022/01/20 18:46:23;;;;;;;7.33;1.87;;;;;;;-2.97;100.00;96681.09;10376156;28;20236;-65
2022/01/20 18:51:24;;;;;;;5.10;1.47;;;;;;;-3.20;100.00;96695.03;10375881;28;20197;-65
2022/01/20 18:56:24;;;;;;;6.67;1.60;;;;;;;-3.17;100.00;96692.31;10375780;28;20220;-64
2022/01/20 19:01:25;;;;;;;10.70;2.10;;;;;;;-3.29;100.00;96698.84;10375091;28;20197;-64
2022/01/20 19:06:25;;;;;;;5.90;2.20;;;;;;;-3.51;100.00;96706.66;10375072;28;20653;-64
2022/01/20 19:11:26;;;;;;;6.63;1.80;;;;;;;-3.61;100.00;96718.25;10375374;28;20197;-64
2022/01/20 19:16:26;;;;;;;7.43;2.00;;;;;;;-3.64;100.00;96723.50;10374881;28;20236;-65
2022/01/20 19:21:27;;;;;;;3.07;2.20;;;;;;;-3.72;100.00;96723.84;10374808;28;20196;-65
2022/01/20 19:26:27;;;;;;;10.30;2.13;;;;;;;-3.76;100.00;96738.50;10374609;28;20312;-64
2022/01/20 19:31:28;;;;;;;7.80;1.80;;;;;;;-3.77;100.00;96746.22;10373670;28;20205;-65
2022/01/20 19:36:28;;;;;;;6.60;1.90;;;;;;;-3.80;100.00;96756.59;10374256;28;20209;-65
2022/01/20 19:41:29;;;;;;;4.60;1.73;;;;;;;-4.00;100.00;96765.16;10374044;28;20264;-66
2022/01/20 19:46:30;;;;;;;8.67;2.07;;;;;;;-4.00;100.00;96771.09;10373842;28;20243;-65
2022/01/20 19:51:30;;;;;;;6.33;2.00;;;;;;;-4.01;100.00;96777.13;10373545;28;20201;-65
2022/01/20 19:56:31;;;;;;;9.93;2.20;;;;;;;-4.14;100.00;96779.34;10373430;28;20237;-65
2022/01/20 20:01:34;;;;;;;8.63;1.87;;;;;;;-4.15;100.00;96797.31;10372966;28;20632;-65
2022/01/20 20:06:35;;;;;;;11.57;1.73;;;;;;;-3.99;100.00;96794.97;10372643;28;20255;-65
2022/01/20 20:11:35;;;;;;;6.60;1.77;;;;;;;-3.85;100.00;96805.44;10373002;28;20292;-65
2022/01/20 20:16:35;;;;;;;4.13;1.80;;;;;;;-3.80;100.00;96807.78;10372341;28;20209;-65
2022/01/20 20:21:36;;;;;;;7.00;1.57;;;;;;;-3.98;100.00;96807.69;10372357;28;20272;-65
2022/01/20 20:26:37;;;;;;;15.00;2.00;;;;;;;-4.10;100.00;96820.16;10372341;28;20256;-65
2022/01/20 20:31:37;;;;;;;5.90;1.60;;;;;;;-4.10;100.00;96826.13;10371896;28;20201;-65
2022/01/20 20:36:39;;;;;;;5.70;1.30;;;;;;;-4.00;100.00;96832.50;10372213;28;20209;-64
2022/01/20 20:41:40;;;;;;;3.33;1.60;;;;;;;-3.79;100.00;96842.75;10371566;28;20243;-65
2022/01/20 20:46:43;;;;;;;11.70;2.00;;;;;;;-3.72;100.00;96846.72;10371719;28;20240;-65
2022/01/20 20:51:43;;;;;;;9.67;1.70;;;;;;;-3.60;100.00;96843.63;10371502;28;20289;-65
2022/01/20 20:56:44;;;;;;;9.93;2.10;;;;;;;-3.49;100.00;96852.56;10371130;28;20312;-66
2022/01/20 21:01:45;;;;;;;7.47;1.97;;;;;;;-3.43;100.00;96852.28;10370790;28;20292;-65
2022/01/20 21:06:46;;;;;;;9.23;1.80;;;;;;;-3.32;100.00;96870.59;10370358;28;20228;-66
2022/01/20 21:11:46;;;;;;;8.37;1.73;;;;;;;-3.36;100.00;96871.63;10370923;28;20189;-65
2022/01/20 21:16:47;;;;;;;10.13;2.10;;;;;;;-3.32;100.00;96870.59;10370599;28;20223;-64
2022/01/20 21:21:47;;;;;;;8.10;2.10;;;;;;;-3.32;100.00;96880.00;10370334;28;20200;-64
2022/01/20 21:26:47;;;;;;;11.03;2.40;;;;;;;-3.31;100.00;96876.53;10370481;28;20238;-65
2022/01/20 21:31:48;;;;;;;11.40;2.87;;;;;;;-3.33;100.00;96899.66;10370024;28;20270;-64
2022/01/20 21:36:50;;;;;;;11.37;2.00;;;;;;;-3.33;100.00;96899.66;10370562;28;20205;-65
2022/01/20 21:41:50;;;;;;;10.03;2.57;;;;;;;-3.47;100.00;96900.25;10369848;28;20715;-65
2022/01/20 21:46:52;;;;;;;11.13;2.47;;;;;;;-3.41;100.00;96919.66;10369820;28;20279;-66
2022/01/20 21:51:53;;;;;;;7.13;1.97;;;;;;;-3.39;100.00;96930.66;10370035;28;20197;-65
2022/01/20 21:56:53;;;;;;;10.10;2.00;;;;;;;-3.44;100.00;96928.28;10376860;28;20729;-65
2022/01/20 22:01:54;;;;;;;11.13;1.83;;;;;;;-3.49;100.00;96949.84;10377957;28;20641;-65
2022/01/20 22:06:54;;;;;;;13.97;2.10;;;;;;;-3.54;100.00;96970.53;10377326;28;20650;-65
2022/01/20 22:11:56;;;;;;;7.27;1.57;;;;;;;-3.62;100.00;96970.03;10377709;28;20566;-65
2022/01/20 22:16:56;;;;;;;10.43;2.10;;;;;;;-3.61;100.00;96984.50;10377403;28;20271;-65
2022/01/20 22:21:57;;;;;;;8.80;1.80;;;;;;;-3.70;100.00;96993.38;10377029;28;20201;-65
2022/01/20 22:26:57;;;;;;;8.50;1.70;;;;;;;-3.67;100.00;96998.38;10377183;28;20225;-65
2022/01/20 22:31:57;;;;;;;6.07;1.30;;;;;;;-3.72;100.00;97002.00;10376690;28;20188;-65
2022/01/20 22:36:58;;;;;;;7.20;1.47;;;;;;;-3.67;100.00;97021.44;10376836;28;20760;-63
2022/01/20 22:41:58;;;;;;;4.43;1.70;;;;;;;-3.78;100.00;97018.47;10376431;28;20675;-65
2022/01/20 22:46:58;;;;;;;17.97;1.77;;;;;;;-3.97;100.00;97029.41;10376109;28;20738;-65
2022/01/20 22:51:59;;;;;;;7.10;2.10;;;;;;;-3.98;100.00;97029.47;10376149;28;20184;-65
2022/01/20 22:56:59;;;;;;;4.70;1.67;;;;;;;-3.98;100.00;97039.69;10375779;28;20209;-65
2022/01/20 23:01:59;;;;;;;4.63;1.87;;;;;;;-4.13;100.00;97041.94;10375610;28;20201;-65
2022/01/20 23:07:00;;;;;;;2.83;1.33;;;;;;;-4.23;100.00;97052.59;10442090;22;20252;-62
2022/01/20 23:12:00;;;;;;;10.80;1.83;;;;;;;-4.26;100.00;97061.19;10416161;28;20201;-62
2022/01/20 23:17:04;;;;;;;5.20;1.60;;;;;;;-4.33;100.00;97060.59;10416347;28;20274;-60
2022/01/20 23:22:05;;;;;;;5.33;1.40;;;;;;;-4.49;100.00;97069.72;10416061;28;20694;-62
2022/01/20 23:27:05;;;;;;;5.50;1.40;;;;;;;-4.64;100.00;97073.63;10415800;28;20318;-60
2022/01/20 23:32:06;;;;;;;6.60;1.93;;;;;;;-4.77;100.00;97091.13;10415626;28;20246;-62
2022/01/20 23:37:06;;;;;;;6.10;1.50;;;;;;;-4.85;100.00;97085.47;10415321;28;20203;-62
2022/01/20 23:42:16;;;;;;;8.30;1.63;;;;;;;-4.81;100.00;97091.28;10415310;28;20195;-61
2022/01/20 23:52:35;;;;;;;3.73;1.80;;;;;;;-4.52;100.00;97095.38;10414960;28;20187;-63
2022/01/20 23:57:36;;;;;;;8.33;1.63;;;;;;;-4.42;100.00;97096.75;10414658;28;20184;-61
